createdAt,value
2022-08-14T00:00:03.822Z,18.89
2022-08-14T00:02:31.563Z,19.01
2022-08-14T00:04:56.553Z,18.96
2022-08-14T00:07:22.944Z,18.98
2022-08-14T00:09:56.182Z,18.94
2022-08-14T00:12:24.278Z,18.91
2022-08-14T00:14:42.121Z,18.90
2022-08-14T00:17:08.439Z,18.82
2022-08-14T00:19:34.859Z,18.87
2022-08-14T00:22:01.328Z,18.82
2022-08-14T00:24:28.993Z,18.80
2022-08-14T00:26:54.841Z,18.84
2022-08-14T00:29:20.479Z,18.83
2022-08-14T00:31:46.961Z,18.85
2022-08-14T00:34:35.362Z,18.94
2022-08-14T00:36:48.632Z,19.00
2022-08-14T00:39:06.586Z,19.00
2022-08-14T00:41:33.459Z,18.92
2022-08-14T00:43:58.981Z,18.83
2022-08-14T00:46:33.035Z,18.79
2022-08-14T00:48:51.832Z,18.77
2022-08-14T00:51:18.324Z,18.80
2022-08-14T00:53:44.686Z,18.90
2022-08-14T00:56:11.050Z,18.91
2022-08-14T00:58:44.917Z,18.92
2022-08-14T01:01:03.988Z,18.93
2022-08-14T01:03:30.754Z,19.02
2022-08-14T01:05:56.809Z,18.99
2022-08-14T01:08:52.137Z,19.02
2022-08-14T01:10:49.571Z,19.03
2022-08-14T01:13:15.956Z,19.07
2022-08-14T01:15:55.147Z,18.97
2022-08-14T01:18:08.700Z,18.93
2022-08-14T01:20:35.089Z,18.90
2022-08-14T01:23:01.469Z,18.93
2022-08-14T01:25:27.853Z,18.90
2022-08-14T01:27:57.457Z,18.87
2022-08-14T01:30:20.887Z,18.97
2022-08-14T01:32:51.213Z,19.10
2022-08-14T01:35:19.131Z,19.13
2022-08-14T01:37:44.158Z,18.96
2022-08-14T01:40:06.294Z,18.79
2022-08-14T01:42:36.172Z,18.75
2022-08-14T01:44:59.090Z,18.73
2022-08-14T01:47:25.466Z,18.71
2022-08-14T01:50:01.234Z,18.69
2022-08-14T01:52:33.763Z,18.73
2022-08-14T01:54:44.760Z,18.70
2022-08-14T01:57:11.138Z,18.74
2022-08-14T01:59:38.590Z,18.73
2022-08-14T02:02:03.965Z,18.75
2022-08-14T02:04:40.880Z,18.76
2022-08-14T02:06:56.664Z,18.41
2022-08-14T02:09:23.152Z,18.33
2022-08-14T02:11:49.511Z,18.32
2022-08-14T02:14:15.918Z,18.28
2022-08-14T02:16:42.282Z,18.31
2022-08-14T02:19:08.649Z,18.31
2022-08-14T02:21:43.303Z,18.32
2022-08-14T02:24:01.402Z,18.29
2022-08-14T02:26:29.396Z,18.36
2022-08-14T02:28:57.547Z,18.31
2022-08-14T02:31:20.516Z,18.24
2022-08-14T02:33:46.973Z,18.29
2022-08-14T02:37:04.318Z,18.34
2022-08-14T02:38:39.767Z,18.24
2022-08-14T02:41:09.022Z,18.22
2022-08-14T02:43:37.106Z,18.25
2022-08-14T02:45:58.961Z,18.26
2022-08-14T02:49:02.971Z,18.24
2022-08-14T02:50:53.486Z,18.21
2022-08-14T02:53:18.231Z,18.25
2022-08-14T02:55:44.615Z,18.24
2022-08-14T02:58:11.097Z,18.28
2022-08-14T03:00:39.939Z,18.38
2022-08-14T03:03:08.018Z,18.43
2022-08-14T03:05:30.242Z,18.53
2022-08-14T03:07:56.726Z,18.56
2022-08-14T03:10:28.169Z,18.81
2022-08-14T03:12:49.526Z,18.99
2022-08-14T03:15:16.501Z,19.10
2022-08-14T03:17:57.807Z,18.98
2022-08-14T03:20:11.059Z,18.83
2022-08-14T03:22:35.140Z,18.84
2022-08-14T03:25:01.503Z,18.95
2022-08-14T03:27:35.528Z,19.11
2022-08-14T03:29:54.230Z,19.24
2022-08-14T03:32:20.616Z,19.35
2022-08-14T03:34:55.291Z,19.22
2022-08-14T03:37:28.353Z,19.08
2022-08-14T03:39:39.848Z,19.02
2022-08-14T03:42:06.174Z,18.96
2022-08-14T03:45:18.984Z,19.06
2022-08-14T03:46:58.939Z,19.29
2022-08-14T03:49:28.893Z,19.33
2022-08-14T03:51:51.713Z,19.18
2022-08-14T03:54:20.761Z,19.06
2022-08-14T03:56:44.468Z,19.00
2022-08-14T03:59:10.869Z,19.05
2022-08-14T04:01:39.123Z,18.96
2022-08-14T04:04:03.660Z,18.79
2022-08-14T04:06:31.563Z,18.68
2022-08-14T04:08:58.104Z,18.60
2022-08-14T04:11:22.814Z,18.55
2022-08-14T04:13:49.208Z,18.55
2022-08-14T04:16:15.623Z,18.54
2022-08-14T04:18:42.417Z,18.58
2022-08-14T04:21:08.441Z,18.52
2022-08-14T04:23:34.925Z,18.49
2022-08-14T04:26:01.356Z,18.58
2022-08-14T04:29:02.226Z,18.63
2022-08-14T04:30:54.120Z,18.66
2022-08-14T04:33:20.805Z,18.68
2022-08-14T04:35:56.896Z,18.67
2022-08-14T04:38:37.024Z,18.62
2022-08-14T04:40:40.465Z,18.59
2022-08-14T04:43:05.972Z,18.58
2022-08-14T04:45:32.415Z,18.61
2022-08-14T04:47:58.776Z,18.72
2022-08-14T04:50:33.882Z,18.75
2022-08-14T04:52:53.852Z,18.81
2022-08-14T04:55:18.033Z,18.84
2022-08-14T04:57:44.472Z,18.85
2022-08-14T05:00:16.235Z,18.92
2022-08-14T05:02:37.399Z,18.94
2022-08-14T05:05:03.603Z,19.05
2022-08-14T05:07:46.565Z,19.07
2022-08-14T05:09:56.350Z,19.14
2022-08-14T05:13:13.145Z,19.16
2022-08-14T05:14:54.780Z,19.20
2022-08-14T05:17:15.485Z,19.25
2022-08-14T05:19:44.916Z,19.26
2022-08-14T05:22:16.601Z,19.29
2022-08-14T05:24:34.722Z,19.30
2022-08-14T05:27:01.103Z,19.41
2022-08-14T05:29:27.593Z,19.34
2022-08-14T05:31:57.404Z,19.38
2022-08-14T05:34:20.318Z,19.45
2022-08-14T05:36:50.510Z,19.43
2022-08-14T05:39:13.068Z,19.38
2022-08-14T05:41:53.892Z,19.44
2022-08-14T05:44:05.799Z,19.53
2022-08-14T05:46:32.183Z,19.50
2022-08-14T05:48:58.640Z,19.53
2022-08-14T05:51:25.083Z,19.55
2022-08-14T05:54:00.143Z,19.54
2022-08-14T05:56:17.894Z,19.92
2022-08-14T05:58:44.275Z,20.02
2022-08-14T06:01:10.662Z,20.02
2022-08-14T06:03:37.001Z,19.99
2022-08-14T06:06:03.363Z,20.05
2022-08-14T06:08:36.314Z,20.06
2022-08-14T06:10:56.235Z,20.05
2022-08-14T06:13:22.663Z,20.05
2022-08-14T06:15:49.059Z,20.07
2022-08-14T06:18:17.583Z,19.98
2022-08-14T06:20:41.864Z,19.99
2022-08-14T06:23:08.298Z,20.03
2022-08-14T06:25:34.729Z,20.03
2022-08-14T06:28:02.139Z,19.99
2022-08-14T06:30:42.163Z,19.95
2022-08-14T06:32:54.125Z,19.94
2022-08-14T06:35:20.331Z,19.87
2022-08-14T06:37:46.903Z,19.85
2022-08-14T06:40:25.576Z,19.86
2022-08-14T06:42:39.497Z,19.89
2022-08-14T06:45:05.887Z,19.84
2022-08-14T06:47:32.284Z,19.73
2022-08-14T06:49:58.746Z,19.71
2022-08-14T06:52:25.112Z,19.79
2022-08-14T06:54:51.622Z,19.78
2022-08-14T06:57:17.983Z,19.81
2022-08-14T06:59:44.377Z,19.91
2022-08-14T07:02:13.604Z,19.88
2022-08-14T07:04:37.140Z,19.84
2022-08-14T07:07:04.463Z,19.87
2022-08-14T07:09:40.457Z,19.95
2022-08-14T07:11:56.469Z,19.93
2022-08-14T07:14:22.697Z,19.96
2022-08-14T07:16:49.061Z,19.95
2022-08-14T07:19:15.424Z,20.12
2022-08-14T07:21:41.808Z,20.12
2022-08-14T07:24:09.653Z,20.18
2022-08-14T07:26:34.635Z,20.32
2022-08-14T07:29:01.035Z,20.46
2022-08-14T07:31:27.400Z,20.54
2022-08-14T07:33:53.762Z,20.63
2022-08-14T07:36:26.584Z,20.79
2022-08-14T07:38:46.561Z,21.01
2022-08-14T07:41:14.826Z,21.17
2022-08-14T07:43:39.307Z,21.32
2022-08-14T07:46:05.676Z,21.31
2022-08-14T07:48:32.059Z,21.32
2022-08-14T07:50:58.417Z,21.17
2022-08-14T07:53:24.788Z,21.09
2022-08-14T07:56:09.171Z,21.00
2022-08-14T07:58:31.680Z,21.08
2022-08-14T08:00:43.980Z,21.13
2022-08-14T08:03:10.377Z,21.21
2022-08-14T08:05:36.721Z,21.35
2022-08-14T08:08:03.101Z,21.53
2022-08-14T08:10:46.335Z,21.77
2022-08-14T08:12:55.845Z,21.72
2022-08-14T08:15:22.231Z,21.63
2022-08-14T08:17:53.920Z,21.54
2022-08-14T08:20:15.014Z,21.54
2022-08-14T08:22:43.419Z,21.60
2022-08-14T08:25:11.389Z,21.53
2022-08-14T08:27:34.335Z,21.48
2022-08-14T08:30:00.769Z,21.52
2022-08-14T08:32:29.841Z,21.56
2022-08-14T08:34:53.535Z,21.65
2022-08-14T08:37:19.968Z,21.67
2022-08-14T08:40:02.333Z,21.69
2022-08-14T08:42:12.698Z,21.80
2022-08-14T08:44:39.108Z,21.88
2022-08-14T08:47:05.958Z,22.08
2022-08-14T08:49:36.365Z,22.42
2022-08-14T08:51:58.256Z,22.48
2022-08-14T08:54:26.563Z,22.57
2022-08-14T08:56:51.973Z,22.88
2022-08-14T08:59:17.486Z,23.03
2022-08-14T09:01:43.868Z,22.84
2022-08-14T09:04:14.757Z,22.77
2022-08-14T09:07:00.298Z,22.65
2022-08-14T09:09:03.166Z,22.67
2022-08-14T09:11:29.552Z,22.54
2022-08-14T09:13:55.953Z,22.51
2022-08-14T09:16:23.563Z,22.54
2022-08-14T09:18:48.821Z,22.64
2022-08-14T09:21:16.154Z,22.77
2022-08-14T09:24:28.504Z,22.89
2022-08-14T09:26:21.371Z,22.72
2022-08-14T09:28:34.536Z,22.50
2022-08-14T09:31:00.879Z,22.62
2022-08-14T09:33:27.274Z,22.71
2022-08-14T09:35:56.443Z,22.70
2022-08-14T09:38:26.132Z,22.76
2022-08-14T09:40:47.732Z,22.95
2022-08-14T09:43:12.854Z,23.17
2022-08-14T09:45:40.111Z,23.42
2022-08-14T09:48:05.598Z,23.66
2022-08-14T09:50:32.061Z,23.55
2022-08-14T09:52:58.686Z,23.51
2022-08-14T09:55:25.173Z,23.47
2022-08-14T09:57:51.167Z,23.46
2022-08-14T10:00:29.266Z,23.50
2022-08-14T10:02:46.211Z,23.89
2022-08-14T10:05:10.292Z,25.30
2022-08-14T10:07:36.671Z,25.83
2022-08-14T10:10:03.040Z,25.84
2022-08-14T10:12:29.552Z,25.30
2022-08-14T10:14:55.862Z,24.91
2022-08-14T10:17:22.213Z,24.50
2022-08-14T10:19:48.622Z,24.83
2022-08-14T10:23:11.746Z,25.14
2022-08-14T10:24:42.157Z,25.63
2022-08-14T10:27:07.843Z,25.80
2022-08-14T10:29:34.246Z,25.73
2022-08-14T10:32:00.608Z,25.95
2022-08-14T10:34:33.265Z,25.40
2022-08-14T10:37:02.598Z,25.47
2022-08-14T10:39:19.940Z,25.65
2022-08-14T10:41:48.546Z,25.97
2022-08-14T10:44:21.215Z,27.40
2022-08-14T10:47:39.094Z,27.61
2022-08-14T10:49:05.357Z,27.24
2022-08-14T10:51:34.029Z,27.09
2022-08-14T10:53:58.125Z,28.57
2022-08-14T10:56:33.859Z,28.22
2022-08-14T10:58:50.961Z,26.97
2022-08-14T11:01:17.319Z,26.23
2022-08-14T11:03:55.739Z,25.99
2022-08-14T11:06:10.106Z,25.81
2022-08-14T11:08:36.563Z,25.76
2022-08-14T11:11:02.945Z,25.80
2022-08-14T11:13:29.313Z,25.87
2022-08-14T11:15:55.716Z,25.83
2022-08-14T11:18:32.353Z,25.91
2022-08-14T11:20:48.571Z,25.85
2022-08-14T11:23:14.971Z,25.89
2022-08-14T11:25:44.396Z,26.09
2022-08-14T11:28:10.788Z,26.03
2022-08-14T11:30:51.714Z,26.22
2022-08-14T11:33:00.470Z,26.53
2022-08-14T11:35:26.823Z,27.14
2022-08-14T11:37:53.239Z,27.03
2022-08-14T11:40:24.369Z,26.00
2022-08-14T11:42:57.283Z,25.77
2022-08-14T11:45:18.746Z,25.94
2022-08-14T11:47:43.842Z,25.88
2022-08-14T11:50:05.198Z,25.84
2022-08-14T11:52:31.640Z,25.53
2022-08-14T11:54:58.021Z,25.30
2022-08-14T11:57:24.397Z,25.09
2022-08-14T11:59:50.759Z,24.93
2022-08-14T12:03:01.298Z,24.97
2022-08-14T12:04:43.499Z,24.95
2022-08-14T12:07:09.932Z,25.04
2022-08-14T12:09:36.362Z,25.00
2022-08-14T12:12:02.723Z,24.92
2022-08-14T12:14:34.719Z,25.03
2022-08-14T12:16:55.560Z,25.31
2022-08-14T12:19:21.992Z,25.23
2022-08-14T12:21:48.426Z,25.20
2022-08-14T12:24:35.792Z,25.21
2022-08-14T12:26:41.366Z,25.22
2022-08-14T12:29:07.605Z,24.93
2022-08-14T12:31:36.375Z,24.68
2022-08-14T12:34:00.395Z,24.60
2022-08-14T12:36:26.761Z,24.62
2022-08-14T12:38:54.199Z,24.70
2022-08-14T12:41:21.071Z,24.80
2022-08-14T12:43:45.914Z,24.74
2022-08-14T12:46:12.285Z,24.63
2022-08-14T12:48:38.630Z,24.60
2022-08-14T12:51:05.132Z,24.42
2022-08-14T12:53:31.470Z,24.23
2022-08-14T12:56:21.328Z,24.02
2022-08-14T12:58:35.360Z,23.71
2022-08-14T13:01:16.460Z,23.69
2022-08-14T13:03:17.108Z,23.70
2022-08-14T13:05:43.609Z,23.79
2022-08-14T13:08:10.661Z,23.73
2022-08-14T13:10:47.218Z,23.47
2022-08-14T13:13:13.537Z,23.23
2022-08-14T13:15:29.153Z,23.12
2022-08-14T13:17:55.533Z,23.00
2022-08-14T13:20:24.507Z,22.96
2022-08-14T13:22:48.351Z,22.82
2022-08-14T13:25:15.852Z,22.70
2022-08-14T13:27:41.039Z,22.62
2022-08-14T13:30:10.291Z,22.69
2022-08-14T13:32:33.959Z,22.71
2022-08-14T13:35:00.483Z,22.69
2022-08-14T13:37:26.826Z,22.73
2022-08-14T13:39:56.431Z,22.75
2022-08-14T13:42:19.570Z,22.62
2022-08-14T13:44:46.024Z,22.58
2022-08-14T13:47:12.382Z,22.54
2022-08-14T13:49:40.324Z,22.55
2022-08-14T13:52:48.749Z,22.57
2022-08-14T13:54:31.539Z,22.49
2022-08-14T13:56:57.984Z,22.45
2022-08-14T13:59:37.713Z,22.43
2022-08-14T14:01:51.660Z,22.45
2022-08-14T14:04:19.058Z,22.45
2022-08-14T14:06:43.613Z,22.36
2022-08-14T14:09:09.973Z,22.30
2022-08-14T14:11:36.331Z,22.34
2022-08-14T14:14:02.811Z,22.40
2022-08-14T14:16:31.093Z,22.49
2022-08-14T14:18:55.551Z,22.59
2022-08-14T14:21:22.088Z,22.64
2022-08-14T14:23:48.338Z,22.67
2022-08-14T14:26:16.189Z,22.69
2022-08-14T14:28:41.165Z,22.67
2022-08-14T14:31:07.527Z,22.98
2022-08-14T14:33:49.558Z,22.61
2022-08-14T14:36:00.407Z,22.58
2022-08-14T14:38:27.664Z,22.55
2022-08-14T14:41:00.945Z,22.48
2022-08-14T14:43:19.622Z,22.47
2022-08-14T14:45:45.998Z,22.44
2022-08-14T14:48:12.360Z,22.40
2022-08-14T14:50:38.738Z,22.34
2022-08-14T14:53:12.737Z,22.37
2022-08-14T14:55:43.032Z,22.39
2022-08-14T14:57:57.903Z,22.42
2022-08-14T15:00:24.316Z,22.38
2022-08-14T15:02:51.586Z,22.36
2022-08-14T15:05:17.121Z,22.44
2022-08-14T15:07:43.533Z,22.44
2022-08-14T15:10:27.658Z,22.52
2022-08-14T15:12:57.531Z,22.59
2022-08-14T15:15:08.866Z,22.61
2022-08-14T15:17:35.088Z,22.66
2022-08-14T15:19:56.959Z,22.67
2022-08-14T15:22:21.803Z,22.76
2022-08-14T15:24:48.241Z,22.84
2022-08-14T15:27:14.676Z,22.92
2022-08-14T15:29:43.083Z,22.99
2022-08-14T15:32:08.692Z,23.05
2022-08-14T15:34:45.414Z,23.05
2022-08-14T15:37:00.196Z,23.15
2022-08-14T15:39:29.346Z,23.24
2022-08-14T15:41:53.001Z,23.24
2022-08-14T15:44:25.690Z,23.26
2022-08-14T15:46:45.791Z,23.29
2022-08-14T15:49:12.162Z,23.30
2022-08-14T15:51:42.311Z,23.19
2022-08-14T15:54:05.022Z,23.17
2022-08-14T15:56:42.269Z,23.17
2022-08-14T15:58:57.895Z,23.07
2022-08-14T16:01:50.588Z,23.01
2022-08-14T16:03:50.685Z,23.00
2022-08-14T16:06:17.883Z,22.96
2022-08-14T16:08:43.466Z,22.95
2022-08-14T16:11:09.883Z,22.93
2022-08-14T16:13:41.675Z,22.94
2022-08-14T16:16:34.628Z,22.88
2022-08-14T16:18:29.056Z,22.84
2022-08-14T16:20:55.486Z,22.67
2022-08-14T16:23:21.865Z,22.50
2022-08-14T16:25:48.354Z,22.50
2022-08-14T16:28:27.587Z,22.45
2022-08-14T16:30:41.099Z,22.47
2022-08-14T16:33:07.466Z,22.48
2022-08-14T16:35:43.139Z,22.51
2022-08-14T16:38:00.215Z,22.40
2022-08-14T16:43:03.909Z,22.06
2022-08-14T16:45:19.347Z,21.98
2022-08-14T16:47:47.793Z,21.94
2022-08-14T16:50:12.105Z,21.87
2022-08-14T16:52:44.053Z,21.83
2022-08-14T16:55:04.933Z,21.85
2022-08-14T16:57:32.422Z,21.81
2022-08-14T16:59:59.093Z,21.84
2022-08-14T17:02:24.228Z,21.88
2022-08-14T17:04:50.617Z,21.89
2022-08-14T17:07:16.976Z,21.83
2022-08-14T17:09:43.870Z,21.81
2022-08-14T17:12:09.746Z,21.81
2022-08-14T17:14:36.132Z,21.79
2022-08-14T17:17:02.517Z,21.74
2022-08-14T17:19:28.877Z,21.78
2022-08-14T17:21:55.287Z,21.80
2022-08-14T17:24:57.978Z,21.74
2022-08-14T17:26:48.106Z,21.67
2022-08-14T17:29:14.465Z,21.62
2022-08-14T17:31:58.590Z,21.59
2022-08-14T17:34:07.249Z,21.65
2022-08-14T17:36:33.682Z,21.69
2022-08-14T17:39:00.269Z,21.71
2022-08-14T17:41:32.686Z,21.71
2022-08-14T17:43:55.330Z,21.78
2022-08-14T17:46:19.296Z,21.78
2022-08-14T17:49:15.957Z,21.74
2022-08-14T17:51:12.095Z,21.76
2022-08-14T17:53:38.493Z,21.69
2022-08-14T17:56:04.941Z,21.64
2022-08-14T17:58:42.126Z,21.64
2022-08-14T18:00:57.815Z,21.66
2022-08-14T18:03:46.749Z,21.58
2022-08-14T18:06:08.646Z,21.51
2022-08-14T18:08:34.119Z,21.39
2022-08-14T18:10:54.926Z,21.18
2022-08-14T18:13:10.518Z,21.11
2022-08-14T18:15:37.440Z,21.03
2022-08-14T18:18:02.305Z,21.08
2022-08-14T18:21:40.266Z,21.03
2022-08-14T18:22:55.089Z,20.96
2022-08-14T18:25:22.756Z,20.99
2022-08-14T18:27:48.041Z,20.98
2022-08-14T18:30:36.425Z,20.94
2022-08-14T18:32:47.075Z,20.96
2022-08-14T18:35:11.476Z,20.94
2022-08-14T18:37:33.483Z,20.93
2022-08-14T18:40:02.757Z,21.09
2022-08-14T18:42:30.296Z,21.32
2022-08-14T18:44:52.787Z,21.36
2022-08-14T18:47:19.039Z,21.34
2022-08-14T18:49:45.449Z,21.29
2022-08-14T18:52:11.828Z,21.61
2022-08-14T18:54:38.303Z,21.60
2022-08-14T18:57:05.363Z,21.74
2022-08-14T18:59:35.575Z,21.75
2022-08-14T19:01:57.559Z,21.76
2022-08-14T19:04:23.949Z,21.69
2022-08-14T19:06:56.524Z,21.54
2022-08-14T19:09:16.713Z,21.59
2022-08-14T19:11:43.084Z,21.53
2022-08-14T19:14:09.569Z,21.52
2022-08-14T19:16:36.153Z,21.52
2022-08-14T19:19:02.516Z,21.53
2022-08-14T19:21:29.702Z,21.59
2022-08-14T19:24:00.155Z,21.55
2022-08-14T19:26:36.774Z,21.59
2022-08-14T19:28:48.172Z,21.57
2022-08-14T19:31:14.527Z,21.57
2022-08-14T19:33:40.893Z,21.46
2022-08-14T19:36:07.290Z,21.48
2022-08-14T19:38:33.697Z,21.30
2022-08-14T19:41:01.533Z,21.30
2022-08-14T19:43:55.296Z,21.39
2022-08-14T19:45:52.879Z,21.39
2022-08-14T19:48:19.248Z,21.40
2022-08-14T19:50:45.613Z,21.37
2022-08-14T19:53:17.734Z,21.34
2022-08-14T19:55:38.420Z,21.45
2022-08-14T19:58:04.855Z,21.61
2022-08-14T20:00:31.276Z,21.43
2022-08-14T20:02:57.970Z,21.39
2022-08-14T20:05:24.051Z,21.29
2022-08-14T20:08:00.471Z,21.29
2022-08-14T20:11:11.278Z,21.42
2022-08-14T20:12:57.402Z,21.45
2022-08-14T20:15:09.679Z,21.55
2022-08-14T20:17:40.393Z,21.54
2022-08-14T20:20:02.416Z,21.64
2022-08-14T20:22:36.426Z,21.58
2022-08-14T20:24:55.176Z,21.42
2022-08-14T20:27:21.642Z,21.19
2022-08-14T20:29:48.074Z,20.95
2022-08-14T20:32:14.664Z,20.96
2022-08-14T20:34:40.827Z,21.02
2022-08-14T20:37:09.987Z,20.96
2022-08-14T20:39:34.621Z,21.27
2022-08-14T20:42:00.056Z,21.20
2022-08-14T20:44:28.630Z,21.28
2022-08-14T20:46:52.861Z,21.35
2022-08-14T20:49:19.425Z,21.28
2022-08-14T20:51:54.589Z,21.13
2022-08-14T20:54:12.097Z,20.99
2022-08-14T20:56:38.467Z,21.02
2022-08-14T20:59:04.885Z,21.20
2022-08-14T21:01:32.664Z,21.18
2022-08-14T21:03:58.304Z,21.14
2022-08-14T21:06:24.041Z,21.09
2022-08-14T21:08:50.491Z,21.13
2022-08-14T21:11:17.820Z,21.25
2022-08-14T21:14:25.083Z,21.23
2022-08-14T21:16:34.788Z,21.13
2022-08-14T21:18:44.920Z,21.11
2022-08-14T21:21:06.733Z,21.06
2022-08-14T21:23:32.496Z,21.04
2022-08-14T21:25:55.333Z,21.23
2022-08-14T21:28:29.968Z,21.04
2022-08-14T21:30:52.141Z,21.06
2022-08-14T21:33:14.461Z,21.10
2022-08-14T21:35:40.991Z,21.16
2022-08-14T21:38:07.326Z,21.07
2022-08-14T21:40:41.931Z,21.02
2022-08-14T21:43:00.175Z,21.04
2022-08-14T21:45:26.540Z,21.26
2022-08-14T21:47:52.903Z,21.27
2022-08-14T21:50:39.466Z,21.17
2022-08-14T21:52:51.013Z,21.09
2022-08-14T21:55:13.212Z,20.98
2022-08-14T21:57:53.514Z,21.02
2022-08-14T22:00:30.160Z,20.97
2022-08-14T22:02:32.783Z,20.86
2022-08-14T22:04:57.838Z,20.79
2022-08-14T22:07:29.303Z,20.75
2022-08-14T22:09:55.025Z,20.85
2022-08-14T22:12:58.827Z,20.83
2022-08-14T22:14:44.080Z,20.75
2022-08-14T22:17:13.084Z,20.75
2022-08-14T22:19:47.607Z,20.95
2022-08-14T22:22:02.630Z,20.78
2022-08-14T22:24:38.016Z,20.56
2022-08-14T22:26:55.623Z,20.56
2022-08-14T22:29:22.067Z,20.62
2022-08-14T22:31:48.427Z,20.60
2022-08-14T22:34:15.212Z,20.55
2022-08-14T22:36:42.076Z,20.44
2022-08-14T22:39:11.125Z,20.27
2022-08-14T22:41:42.646Z,20.20
2022-08-14T22:44:00.299Z,20.25
2022-08-14T22:46:27.099Z,20.18
2022-08-14T22:48:53.121Z,20.32
2022-08-14T22:51:19.508Z,20.33
2022-08-14T22:53:45.992Z,20.28
2022-08-14T22:56:20.306Z,20.21
2022-08-14T22:58:38.737Z,20.29
2022-08-14T23:01:10.140Z,20.31
2022-08-14T23:03:34.900Z,20.21
2022-08-14T23:05:59.299Z,20.29
2022-08-14T23:09:00.127Z,20.34
2022-08-14T23:10:50.810Z,20.32
2022-08-14T23:13:17.192Z,20.24
2022-08-14T23:15:43.681Z,20.26
2022-08-14T23:18:13.278Z,20.26
2022-08-14T23:20:36.488Z,20.20
2022-08-14T23:23:02.781Z,20.12
2022-08-14T23:25:57.313Z,20.07
2022-08-14T23:28:03.207Z,20.15
2022-08-14T23:30:34.139Z,20.18
2022-08-14T23:32:48.456Z,20.02
2022-08-14T23:35:14.831Z,19.88
2022-08-14T23:37:41.197Z,19.90
2022-08-14T23:40:26.520Z,19.92
2022-08-14T23:42:40.065Z,19.77
2022-08-14T23:45:00.285Z,19.82
2022-08-14T23:47:27.841Z,19.77
2022-08-14T23:50:00.341Z,19.69
2022-08-14T23:52:50.867Z,19.71
2022-08-14T23:54:49.443Z,19.80
2022-08-14T23:57:12.317Z,19.68
2022-08-14T23:59:45.177Z,19.68
